This is the latest recevied weather packets stored in our database for station/object KC1OEK-13. If no packets are shown the sender has not sent any weather packets the latest 10 day(s).
| Time | Temp. | Humidity | Pressure | Rain* | Wind** | Luminosity | Snow |
|---|---|---|---|---|---|---|---|
| 1777641278 | 10° C | 65% | 1013.6 hPa | 0 mm | - | 185 W/m² | - |
| 1777640975 | 9.44° C | 67% | 1013.6 hPa | 0 mm | - | 140 W/m² | - |
| 1777640672 | 9.44° C | 67% | 1013.6 hPa | 0 mm | - | 167 W/m² | - |
| 1777640368 | 9.44° C | 67% | 1013.6 hPa | 0 mm | - | 430 W/m² | - |
| 1777640065 | 9.44° C | 67% | 1013.8 hPa | 0 mm | - | 402 W/m² | - |
| 1777639762 | 9.44° C | 69% | 1013.9 hPa | 0 mm | - | 382 W/m² | - |
| 1777639460 | 9.44° C | 68% | 1013.6 hPa | 0 mm | - | 375 W/m² | - |
| 1777639155 | 8.89° C | 70% | 1013.8 hPa | 0 mm | - | 360 W/m² | - |
| 1777638852 | 8.89° C | 72% | 1013.7 hPa | 0 mm | - | 326 W/m² | - |
| 1777638548 | 8.89° C | 71% | 1013.7 hPa | 0 mm | - | 315 W/m² | - |
| 1777638244 | 8.33° C | 71% | 1013.6 hPa | 0 mm | - | 294 W/m² | - |
| 1777637940 | 8.33° C | 72% | 1013.8 hPa | 0 mm | - | 277 W/m² | - |
| 1777637637 | 7.78° C | 74% | 1013.6 hPa | 0 mm | - | 267 W/m² | - |
| 1777637334 | 7.78° C | 75% | 1013.8 hPa | 0 mm | - | 74 W/m² | - |
| 1777637031 | 7.22° C | 77% | 1013.8 hPa | 0 mm | - | 68 W/m² | - |
| 1777636726 | 7.22° C | 77% | 1013.7 hPa | 0 mm | - | 99 W/m² | - |
| 1777636423 | 6.67° C | 80% | 1013.6 hPa | 0 mm | - | 141 W/m² | - |
| 1777636119 | 6.11° C | 82% | 1013.7 hPa | 0 mm | - | 73 W/m² | - |
| 1777635814 | 5.56° C | 87% | 1013.7 hPa | 0 mm | - | 59 W/m² | - |
| 1777635511 | 5° C | 90% | 1013.8 hPa | 0 mm | - | 39 W/m² | - |
| 1777635207 | 3.89° C | 95% | 1013.6 hPa | 0 mm | - | 34 W/m² | - |
| 1777634904 | 3.89° C | 97% | 1013.6 hPa | 0 mm | - | 36 W/m² | - |
| 1777634601 | 3.33° C | 97% | 1013.6 hPa | 0 mm | - | 36 W/m² | - |
| 1777634299 | 3.33° C | 97% | 1013.6 hPa | 0 mm | - | 33 W/m² | - |
| 1777633995 | 2.78° C | 97% | 1013.5 hPa | 0 mm | - | 31 W/m² | - |
* Rain latest hour (hover to see other rain measurements)
** Current wind speed in m/s (hover to see current wind gust speed)